createdAt,value
2022-12-08T00:00:01.011Z,182.43
2022-12-08T00:02:29.488Z,183.95
2022-12-08T00:05:15.294Z,256.55
2022-12-08T00:08:02.689Z,209.60
2022-12-08T00:11:01.155Z,242.75
2022-12-08T00:13:19.581Z,198.32
2022-12-08T00:15:48.002Z,342.90
2022-12-08T00:18:16.405Z,361.58
2022-12-08T00:20:44.772Z,296.42
2022-12-08T00:23:14.571Z,332.83
2022-12-08T00:25:42.948Z,289.27
2022-12-08T00:28:11.345Z,275.00
2022-12-08T00:30:41.488Z,275.75
2022-12-08T00:33:09.922Z,317.15
2022-12-08T00:35:42.931Z,360.13
2022-12-08T00:38:13.125Z,376.30
2022-12-08T00:40:45.931Z,359.88
2022-12-08T00:43:14.464Z,387.30
2022-12-08T00:45:42.921Z,312.50
2022-12-08T00:48:11.470Z,361.30
2022-12-08T00:50:39.870Z,342.95
2022-12-08T00:53:08.209Z,395.23
2022-12-08T00:55:38.128Z,425.90
2022-12-08T00:58:06.548Z,344.23
2022-12-08T01:00:34.926Z,360.75
2022-12-08T01:03:03.437Z,415.23
2022-12-08T01:05:31.860Z,374.63
2022-12-08T01:08:00.518Z,445.63
2022-12-08T01:10:29.018Z,360.42
2022-12-08T01:13:00.147Z,405.50
2022-12-08T01:15:28.560Z,321.77
2022-12-08T01:17:57.397Z,369.85
2022-12-08T01:20:26.061Z,369.52
2022-12-08T01:22:54.515Z,357.40
2022-12-08T01:25:22.913Z,454.92
2022-12-08T01:27:52.866Z,410.48
2022-12-08T01:30:22.806Z,315.67
2022-12-08T01:32:51.136Z,334.55
2022-12-08T01:35:19.610Z,341.52
2022-12-08T01:37:47.990Z,351.15
2022-12-08T01:40:16.508Z,446.35
2022-12-08T01:42:44.958Z,416.13
2022-12-08T01:45:19.021Z,349.05
2022-12-08T01:47:51.219Z,399.45
2022-12-08T01:50:20.994Z,451.40
2022-12-08T01:52:52.540Z,484.23
2022-12-08T01:55:24.638Z,366.30
2022-12-08T01:57:55.327Z,443.15
2022-12-08T02:00:24.211Z,448.30
2022-12-08T02:02:59.090Z,473.98
2022-12-08T02:05:29.348Z,475.20
2022-12-08T02:07:59.219Z,470.75
2022-12-08T02:10:31.496Z,478.30
2022-12-08T02:13:00.784Z,469.35
2022-12-08T02:15:40.196Z,449.00
2022-12-08T02:18:24.020Z,491.98
2022-12-08T02:20:57.760Z,399.00
2022-12-08T02:23:32.975Z,484.77
2022-12-08T02:26:34.538Z,363.63
2022-12-08T02:29:23.919Z,361.05
2022-12-08T02:32:06.260Z,336.77
2022-12-08T02:34:39.731Z,328.02
2022-12-08T02:37:11.059Z,379.08
2022-12-08T02:39:45.962Z,389.92
2022-12-08T02:42:18.454Z,342.75
2022-12-08T02:44:49.807Z,419.98
2022-12-08T02:47:20.366Z,409.55
2022-12-08T02:49:50.252Z,339.70
2022-12-08T02:52:51.686Z,408.42
2022-12-08T02:55:24.389Z,353.65
2022-12-08T02:58:15.701Z,380.73
2022-12-08T03:00:54.328Z,316.90
2022-12-08T03:03:30.572Z,390.33
2022-12-08T03:06:07.016Z,414.98
2022-12-08T03:08:39.912Z,407.90
2022-12-08T03:11:11.706Z,426.52
2022-12-08T03:13:42.504Z,430.45
2022-12-08T03:16:14.365Z,408.75
2022-12-08T03:18:46.462Z,425.88
2022-12-08T03:21:17.426Z,410.27
2022-12-08T03:23:47.150Z,440.23
2022-12-08T03:26:19.986Z,424.30
2022-12-08T03:28:48.628Z,426.27
2022-12-08T03:31:18.053Z,338.73
2022-12-08T03:33:48.065Z,389.60
2022-12-08T03:36:17.776Z,425.83
2022-12-08T03:38:48.098Z,436.63
2022-12-08T03:41:22.258Z,461.50
2022-12-08T03:43:51.693Z,424.50
2022-12-08T03:48:49.209Z,442.30
2022-12-08T03:51:19.668Z,431.77
2022-12-08T03:53:48.304Z,412.10
2022-12-08T03:56:23.255Z,429.92
2022-12-08T03:58:51.675Z,368.27
2022-12-08T04:01:20.424Z,400.13
2022-12-08T04:03:48.921Z,421.08
2022-12-08T04:06:19.602Z,346.75
2022-12-08T04:08:48.486Z,441.38
2022-12-08T04:11:16.899Z,416.20
2022-12-08T04:13:46.016Z,431.10
2022-12-08T04:16:18.246Z,421.42
2022-12-08T04:18:46.779Z,409.90
2022-12-08T04:21:15.680Z,369.38
2022-12-08T04:23:45.912Z,394.42
2022-12-08T04:26:15.047Z,411.08
2022-12-08T04:28:43.478Z,415.33
2022-12-08T04:31:12.490Z,420.42
2022-12-08T04:33:40.827Z,429.90
2022-12-08T04:36:10.175Z,440.75
2022-12-08T04:38:38.542Z,458.17
2022-12-08T04:41:08.584Z,447.23
2022-12-08T04:43:37.361Z,400.48
2022-12-08T04:46:08.346Z,410.08
2022-12-08T04:48:37.868Z,432.33
2022-12-08T04:51:06.596Z,426.70
2022-12-08T04:53:35.066Z,423.42
2022-12-08T04:56:03.846Z,404.25
2022-12-08T04:58:33.673Z,385.27
2022-12-08T05:01:02.087Z,415.08
2022-12-08T05:03:30.433Z,385.90
2022-12-08T05:06:00.985Z,401.48
2022-12-08T05:08:29.951Z,355.70
2022-12-08T05:11:03.965Z,339.00
2022-12-08T05:13:33.938Z,355.52
2022-12-08T05:16:06.389Z,352.77
2022-12-08T05:18:35.036Z,375.20
2022-12-08T05:21:03.493Z,367.23
2022-12-08T05:23:31.924Z,370.17
2022-12-08T05:26:00.521Z,389.45
2022-12-08T05:28:44.453Z,375.05
2022-12-08T05:31:15.717Z,333.88
2022-12-08T05:33:44.681Z,360.65
2022-12-08T05:36:14.217Z,391.92
2022-12-08T05:38:42.795Z,366.60
2022-12-08T05:41:14.070Z,373.42
2022-12-08T05:43:42.399Z,405.20
2022-12-08T05:46:11.299Z,397.40
2022-12-08T05:48:41.253Z,431.33
2022-12-08T05:51:17.477Z,391.83
2022-12-08T05:53:45.935Z,320.85
2022-12-08T05:56:14.621Z,346.50
2022-12-08T05:58:43.038Z,295.60
2022-12-08T06:01:24.040Z,315.02
2022-12-08T06:03:54.370Z,337.52
2022-12-08T06:06:23.669Z,296.15
2022-12-08T06:08:52.162Z,416.27
2022-12-08T06:11:21.163Z,347.02
2022-12-08T06:13:49.965Z,397.00
2022-12-08T06:16:18.781Z,358.25
2022-12-08T06:18:47.566Z,339.95
2022-12-08T06:21:18.050Z,342.45
2022-12-08T06:23:48.493Z,393.42
2022-12-08T06:26:17.645Z,300.27
2022-12-08T06:28:46.169Z,411.10
2022-12-08T06:31:17.190Z,373.92
2022-12-08T06:33:45.817Z,457.60
2022-12-08T06:36:20.450Z,376.30
2022-12-08T06:41:17.587Z,251.40
2022-12-08T06:43:46.093Z,383.60
2022-12-08T06:46:16.766Z,433.40
2022-12-08T06:48:45.299Z,384.95
2022-12-08T06:51:16.903Z,526.88
2022-12-08T06:53:45.937Z,361.75
2022-12-08T06:56:15.714Z,362.23
2022-12-08T06:58:48.929Z,409.55
2022-12-08T07:01:20.731Z,427.52
2022-12-08T07:03:49.208Z,336.35
2022-12-08T07:06:23.220Z,366.63
2022-12-08T07:08:51.901Z,368.17
2022-12-08T07:11:22.296Z,379.55
2022-12-08T07:13:51.725Z,358.98
2022-12-08T07:16:20.440Z,347.95
2022-12-08T07:18:48.933Z,387.90
2022-12-08T07:21:19.093Z,373.25
2022-12-08T07:23:54.274Z,292.23
2022-12-08T07:26:26.714Z,283.33
2022-12-08T07:28:55.144Z,337.45
2022-12-08T07:31:24.961Z,341.52
2022-12-08T07:33:54.080Z,237.32
2022-12-08T07:36:24.377Z,327.08
2022-12-08T07:38:54.279Z,346.27
2022-12-08T07:41:24.296Z,265.63
2022-12-08T07:43:53.523Z,378.70
2022-12-08T07:46:23.910Z,302.75
2022-12-08T07:48:52.794Z,227.57
2022-12-08T07:51:23.015Z,186.55
2022-12-08T07:53:54.463Z,248.15
2022-12-08T07:56:23.795Z,211.27
2022-12-08T07:58:52.353Z,272.35
2022-12-08T08:01:23.409Z,276.13
2022-12-08T08:03:51.967Z,301.75
2022-12-08T08:06:20.359Z,280.98
2022-12-08T08:08:50.036Z,317.98
2022-12-08T08:11:21.207Z,303.45
2022-12-08T08:13:50.569Z,375.55
2022-12-08T08:16:20.093Z,286.00
2022-12-08T08:18:49.762Z,308.25
2022-12-08T08:24:09.291Z,214.80
2022-12-08T08:26:38.404Z,277.77
2022-12-08T08:29:07.226Z,278.67
2022-12-08T08:31:35.778Z,296.83
2022-12-08T08:34:06.336Z,369.45
2022-12-08T08:36:34.993Z,395.45
2022-12-08T08:39:03.526Z,290.30
2022-12-08T08:41:33.388Z,312.35
2022-12-08T08:44:02.001Z,277.02
2022-12-08T08:46:30.490Z,285.60
2022-12-08T08:48:58.979Z,236.90
2022-12-08T08:51:27.677Z,273.83
2022-12-08T08:53:56.138Z,280.77
2022-12-08T08:56:24.695Z,223.82
2022-12-08T08:58:55.447Z,292.23
2022-12-08T09:01:26.482Z,263.30
2022-12-08T09:03:55.322Z,236.27
2022-12-08T09:06:24.507Z,181.02
2022-12-08T09:08:53.391Z,149.18
2022-12-08T09:11:23.305Z,192.38
2022-12-08T09:13:54.653Z,195.32
2022-12-08T09:16:23.828Z,163.20
2022-12-08T09:18:52.399Z,149.85
2022-12-08T09:21:26.442Z,153.45
2022-12-08T09:23:56.877Z,144.63
2022-12-08T09:26:26.083Z,296.67
2022-12-08T09:28:57.489Z,268.05
2022-12-08T09:31:26.487Z,199.35
2022-12-08T09:33:55.282Z,166.35
2022-12-08T09:36:24.077Z,234.60
2022-12-08T09:38:53.673Z,160.10
2022-12-08T09:41:38.763Z,292.80
2022-12-08T09:44:32.205Z,237.68
2022-12-08T09:47:01.635Z,199.05
2022-12-08T09:49:43.182Z,174.32
2022-12-08T09:52:20.125Z,145.18
2022-12-08T09:54:48.744Z,153.98
2022-12-08T09:57:20.429Z,176.90
2022-12-08T09:59:54.552Z,188.50
2022-12-08T10:02:24.451Z,198.40
2022-12-08T10:04:53.504Z,178.23
2022-12-08T10:07:34.835Z,131.02
2022-12-08T10:10:09.352Z,158.35
2022-12-08T10:12:42.701Z,202.85
2022-12-08T10:15:34.157Z,128.52
2022-12-08T10:18:04.633Z,180.45
2022-12-08T10:20:38.654Z,210.68
2022-12-08T10:23:10.753Z,422.63
2022-12-08T10:25:42.784Z,175.18
2022-12-08T10:28:11.515Z,166.65
2022-12-08T10:30:41.433Z,171.05
2022-12-08T10:33:15.554Z,175.18
2022-12-08T10:35:46.620Z,185.95
2022-12-08T10:38:20.744Z,143.10
2022-12-08T10:40:51.451Z,150.43
2022-12-08T10:43:22.806Z,116.80
2022-12-08T10:45:53.506Z,138.43
2022-12-08T10:48:23.393Z,148.60
2022-12-08T10:50:56.333Z,104.10
2022-12-08T10:53:26.835Z,155.05
2022-12-08T10:56:07.719Z,173.65
2022-12-08T10:58:40.383Z,116.20
2022-12-08T11:01:13.545Z,306.05
2022-12-08T11:03:47.774Z,201.90
2022-12-08T11:06:19.380Z,141.70
2022-12-08T11:08:50.528Z,181.27
2022-12-08T11:11:22.079Z,95.20
2022-12-08T11:13:54.385Z,91.10
2022-12-08T11:16:25.201Z,92.15
2022-12-08T11:18:58.206Z,154.93
2022-12-08T11:21:37.029Z,172.27
2022-12-08T11:24:23.133Z,100.68
2022-12-08T11:26:54.345Z,89.85
2022-12-08T11:29:22.904Z,62.45
2022-12-08T11:31:56.019Z,143.65
2022-12-08T11:34:32.096Z,63.38
2022-12-08T11:37:02.107Z,55.42
2022-12-08T11:39:33.379Z,52.45
2022-12-08T11:42:04.210Z,92.15
2022-12-08T11:44:38.957Z,61.55
2022-12-08T11:49:40.467Z,63.22
2022-12-08T11:52:14.576Z,58.15
2022-12-08T11:54:46.540Z,60.28
2022-12-08T11:57:16.588Z,56.22
2022-12-08T11:59:47.254Z,88.32
2022-12-08T12:02:18.820Z,51.58
2022-12-08T12:04:52.172Z,53.97
2022-12-08T12:07:41.265Z,86.35
2022-12-08T12:10:43.728Z,56.05
2022-12-08T12:13:33.480Z,51.60
2022-12-08T12:16:18.808Z,47.97
2022-12-08T12:18:50.937Z,52.47
2022-12-08T12:21:22.214Z,60.55
2022-12-08T12:23:54.323Z,126.65
2022-12-08T12:26:25.056Z,54.95
2022-12-08T12:28:56.575Z,50.97
2022-12-08T12:31:27.124Z,50.05
2022-12-08T12:34:05.004Z,50.65
2022-12-08T12:36:48.176Z,73.25
2022-12-08T12:39:18.060Z,53.42
2022-12-08T12:41:49.717Z,49.95
2022-12-08T12:44:27.164Z,57.30
2022-12-08T12:47:00.548Z,67.75
2022-12-08T12:49:52.862Z,57.85
2022-12-08T12:52:49.918Z,77.05
2022-12-08T12:55:43.441Z,61.50
2022-12-08T12:58:36.711Z,76.38
2022-12-08T13:01:53.983Z,53.50
2022-12-08T13:04:31.080Z,88.05
2022-12-08T13:07:01.635Z,99.70
2022-12-08T13:09:33.857Z,55.45
2022-12-08T13:12:09.376Z,52.47
2022-12-08T13:14:39.593Z,70.70
2022-12-08T13:17:11.811Z,58.60
2022-12-08T13:19:41.312Z,53.45
2022-12-08T13:22:47.364Z,54.92
2022-12-08T13:25:52.470Z,56.97
2022-12-08T13:28:27.402Z,50.58
2022-12-08T13:30:57.822Z,54.50
2022-12-08T13:33:34.041Z,66.93
2022-12-08T13:36:12.865Z,49.97
2022-12-08T13:38:41.586Z,57.85
2022-12-08T13:41:17.814Z,47.80
2022-12-08T13:44:24.832Z,78.70
2022-12-08T13:56:43.996Z,59.50
2022-12-08T13:58:26.290Z,55.50
2022-12-08T14:01:07.694Z,68.28
2022-12-08T14:03:58.313Z,62.40
2022-12-08T14:06:38.928Z,94.07
2022-12-08T14:09:11.522Z,64.07
2022-12-08T14:11:41.505Z,83.38
2022-12-08T14:14:27.321Z,63.13
2022-12-08T14:17:07.962Z,63.97
2022-12-08T14:19:36.781Z,71.75
2022-12-08T14:22:11.101Z,59.92
2022-12-08T14:24:39.642Z,60.65
2022-12-08T14:27:10.370Z,65.32
2022-12-08T14:29:43.102Z,57.88
2022-12-08T14:32:24.893Z,79.40
2022-12-08T14:34:55.483Z,88.55
2022-12-08T14:37:24.843Z,59.13
2022-12-08T14:39:53.626Z,67.28
2022-12-08T14:42:25.000Z,59.30
2022-12-08T14:45:10.616Z,98.25
2022-12-08T14:47:39.238Z,70.88
2022-12-08T14:50:39.360Z,80.82
2022-12-08T14:53:13.605Z,63.92
2022-12-08T14:55:42.033Z,104.97
2022-12-08T14:58:22.181Z,188.90
2022-12-08T15:00:54.557Z,57.83
2022-12-08T15:03:24.460Z,67.85
2022-12-08T15:05:54.759Z,67.25
2022-12-08T15:08:23.625Z,109.05
2022-12-08T15:11:20.277Z,82.85
2022-12-08T15:13:50.827Z,74.38
2022-12-08T15:16:29.387Z,208.90
2022-12-08T15:19:09.760Z,98.97
2022-12-08T15:21:41.846Z,105.65
2022-12-08T15:24:12.581Z,66.93
2022-12-08T15:26:46.223Z,65.65
2022-12-08T15:29:20.722Z,56.97
2022-12-08T15:31:50.874Z,142.15
2022-12-08T15:34:19.477Z,106.35
2022-12-08T15:36:48.191Z,59.50
2022-12-08T15:39:25.958Z,264.23
2022-12-08T15:41:54.508Z,317.83
2022-12-08T15:44:23.332Z,141.50
2022-12-08T15:46:54.406Z,143.13
2022-12-08T15:49:24.559Z,199.40
2022-12-08T15:51:58.443Z,112.05
2022-12-08T15:54:36.494Z,118.28
2022-12-08T15:57:20.149Z,118.68
2022-12-08T15:59:53.955Z,79.32
2022-12-08T16:02:25.371Z,128.50
2022-12-08T16:05:40.316Z,183.68
2022-12-08T16:07:42.536Z,82.32
2022-12-08T16:10:17.948Z,93.10
2022-12-08T16:16:00.480Z,67.55
2022-12-08T16:18:34.581Z,285.50
2022-12-08T16:23:52.285Z,89.60
2022-12-08T16:29:14.521Z,135.50
2022-12-08T16:31:43.099Z,103.65
2022-12-08T16:34:13.046Z,98.72
2022-12-08T16:36:41.556Z,238.70
2022-12-08T16:39:10.754Z,119.75
2022-12-08T16:41:56.604Z,83.13
2022-12-08T16:44:24.972Z,189.13
2022-12-08T16:46:53.372Z,215.27
2022-12-08T16:49:23.088Z,120.93
2022-12-08T16:51:51.460Z,123.72
2022-12-08T16:54:19.906Z,112.95
2022-12-08T16:56:48.325Z,116.93
2022-12-08T16:59:16.712Z,168.52
2022-12-08T17:01:45.121Z,114.72
2022-12-08T17:07:03.426Z,95.93
2022-12-08T17:09:32.764Z,244.43
2022-12-08T17:12:03.926Z,162.10
2022-12-08T17:14:35.027Z,84.63
2022-12-08T17:17:03.600Z,182.90
2022-12-08T17:19:31.980Z,93.90
2022-12-08T17:22:02.206Z,90.07
2022-12-08T17:24:30.711Z,144.30
2022-12-08T17:27:04.438Z,81.45
2022-12-08T17:29:33.421Z,81.70
2022-12-08T17:32:02.188Z,119.30
2022-12-08T17:34:30.971Z,104.93
2022-12-08T17:36:59.501Z,94.43
2022-12-08T17:39:29.413Z,160.02
2022-12-08T17:41:58.000Z,118.10
2022-12-08T17:44:28.221Z,133.38
2022-12-08T17:46:56.901Z,132.88
2022-12-08T17:49:27.109Z,108.32
2022-12-08T17:51:57.394Z,100.75
2022-12-08T17:54:26.332Z,125.30
2022-12-08T17:56:58.460Z,133.23
2022-12-08T17:59:27.702Z,115.10
2022-12-08T18:01:57.436Z,210.85
2022-12-08T18:04:26.951Z,145.75
2022-12-08T18:06:55.482Z,88.35
2022-12-08T18:09:23.945Z,90.18
2022-12-08T18:11:52.785Z,198.60
2022-12-08T18:14:22.673Z,77.55
2022-12-08T18:16:51.133Z,159.88
2022-12-08T18:19:19.626Z,103.25
2022-12-08T18:21:51.124Z,145.82
2022-12-08T18:24:24.695Z,168.75
2022-12-08T18:26:53.631Z,106.43
2022-12-08T18:29:23.994Z,125.28
2022-12-08T18:31:52.600Z,123.95
2022-12-08T18:34:21.607Z,109.80
2022-12-08T18:36:50.859Z,174.95
2022-12-08T18:39:24.273Z,104.80
2022-12-08T18:41:52.857Z,116.50
2022-12-08T18:44:23.013Z,89.18
2022-12-08T18:46:52.009Z,90.30
2022-12-08T18:49:21.163Z,179.75
2022-12-08T18:51:49.593Z,88.45
2022-12-08T18:54:18.116Z,114.18
2022-12-08T18:56:46.593Z,97.93
2022-12-08T18:59:15.884Z,106.18
2022-12-08T19:01:45.792Z,85.45
2022-12-08T19:04:30.658Z,88.90
2022-12-08T19:07:00.387Z,105.30
2022-12-08T19:09:29.131Z,111.45
2022-12-08T19:11:58.430Z,95.65
2022-12-08T19:14:28.530Z,103.20
2022-12-08T19:16:58.636Z,118.68
2022-12-08T19:19:27.461Z,101.25
2022-12-08T19:21:56.060Z,93.35
2022-12-08T19:24:24.788Z,104.15
2022-12-08T19:26:53.396Z,98.20
2022-12-08T19:29:21.866Z,91.18
2022-12-08T19:31:50.405Z,96.53
2022-12-08T19:34:20.345Z,107.85
2022-12-08T19:36:49.124Z,94.53
2022-12-08T19:39:36.245Z,95.38
2022-12-08T19:42:22.276Z,123.25
2022-12-08T19:44:53.613Z,92.70
2022-12-08T19:47:23.114Z,85.63
2022-12-08T19:49:53.850Z,84.72
2022-12-08T19:52:22.803Z,224.10
2022-12-08T19:54:51.307Z,94.43
2022-12-08T19:57:20.407Z,127.20
2022-12-08T20:00:03.537Z,104.43
2022-12-08T20:02:32.129Z,108.70
2022-12-08T20:05:02.207Z,101.43
2022-12-08T20:07:30.503Z,111.05
2022-12-08T20:09:58.960Z,121.28
2022-12-08T20:12:27.478Z,84.00
2022-12-08T20:14:56.001Z,107.93
2022-12-08T20:17:24.491Z,83.82
2022-12-08T20:19:53.053Z,112.07
2022-12-08T20:22:22.910Z,74.32
2022-12-08T20:24:58.326Z,114.70
2022-12-08T20:27:29.394Z,121.30
2022-12-08T20:29:57.856Z,108.95
2022-12-08T20:32:26.477Z,81.22
2022-12-08T20:34:55.338Z,70.78
2022-12-08T20:37:25.105Z,119.10
2022-12-08T20:39:53.933Z,64.68
2022-12-08T20:42:23.988Z,74.28
2022-12-08T20:44:52.501Z,75.43
2022-12-08T20:47:21.121Z,75.13
2022-12-08T20:49:49.634Z,83.15
2022-12-08T20:52:18.177Z,66.18
2022-12-08T20:54:48.108Z,65.80
2022-12-08T20:57:16.565Z,69.93
2022-12-08T20:59:45.539Z,71.22
2022-12-08T21:02:14.034Z,73.47
2022-12-08T21:04:42.947Z,72.10
2022-12-08T21:07:12.433Z,73.80
2022-12-08T21:09:42.169Z,74.57
2022-12-08T21:12:12.223Z,77.13
2022-12-08T21:14:41.828Z,73.00
2022-12-08T21:17:10.550Z,74.55
2022-12-08T21:19:39.381Z,64.65
2022-12-08T21:22:07.920Z,78.50
2022-12-08T21:24:36.463Z,70.22
2022-12-08T21:27:05.193Z,81.55
2022-12-08T21:29:35.198Z,89.80
2022-12-08T21:32:03.847Z,72.60
2022-12-08T21:34:34.243Z,80.32
2022-12-08T21:37:03.135Z,81.03
2022-12-08T21:39:31.785Z,77.10
2022-12-08T21:42:24.235Z,79.22
2022-12-08T21:44:54.656Z,78.63
2022-12-08T21:47:23.455Z,81.10
2022-12-08T21:49:52.096Z,73.40
2022-12-08T21:52:20.565Z,71.10
2022-12-08T21:54:49.162Z,86.55
2022-12-08T21:57:17.730Z,74.70
2022-12-08T21:59:46.251Z,72.78
2022-12-08T22:02:22.013Z,74.43
2022-12-08T22:04:52.556Z,72.97
2022-12-08T22:07:21.815Z,74.10
2022-12-08T22:09:50.688Z,77.18
2022-12-08T22:12:19.333Z,79.55
2022-12-08T22:14:49.994Z,70.82
2022-12-08T22:17:20.313Z,74.95
2022-12-08T22:19:48.803Z,73.82
2022-12-08T22:22:17.070Z,66.38
2022-12-08T22:24:45.563Z,67.63
2022-12-08T22:27:14.043Z,93.13
2022-12-08T22:29:42.555Z,171.13
2022-12-08T22:32:11.002Z,84.15
2022-12-08T22:34:41.116Z,80.22
2022-12-08T22:37:09.573Z,81.63
2022-12-08T22:39:37.922Z,72.45
2022-12-08T22:42:06.407Z,95.90
2022-12-08T22:44:35.026Z,91.90
2022-12-08T22:47:03.897Z,97.10
2022-12-08T22:49:32.445Z,104.22
2022-12-08T22:52:02.136Z,95.40
2022-12-08T22:54:30.448Z,91.60
2022-12-08T22:56:58.855Z,87.53
2022-12-08T22:59:27.623Z,95.25
2022-12-08T23:01:56.078Z,94.68
2022-12-08T23:04:25.351Z,94.35
2022-12-08T23:06:54.023Z,108.55
2022-12-08T23:09:24.369Z,102.38
2022-12-08T23:11:53.015Z,101.22
2022-12-08T23:14:21.409Z,89.82
2022-12-08T23:16:49.865Z,94.18
2022-12-08T23:19:18.290Z,103.93
2022-12-08T23:21:47.504Z,92.93
2022-12-08T23:24:15.925Z,111.15
2022-12-08T23:26:45.723Z,96.32
2022-12-08T23:29:14.472Z,90.18
2022-12-08T23:31:43.012Z,98.80
2022-12-08T23:34:12.110Z,97.30
2022-12-08T23:36:40.631Z,94.50
2022-12-08T23:39:09.175Z,83.07
2022-12-08T23:41:38.271Z,84.80
2022-12-08T23:44:09.127Z,121.53
2022-12-08T23:46:37.833Z,115.07
2022-12-08T23:49:06.343Z,123.90
2022-12-08T23:51:34.842Z,122.75
2022-12-08T23:54:03.501Z,133.20
2022-12-08T23:56:31.998Z,125.50
2022-12-08T23:59:01.864Z,126.40
